Time;durP1;ratioP1;P1;durP2;ratioP2;P2;SDS_P1;SDS_P2;PMS_P1;PMS_P2;Temp;Humidity;BMP_temperature;BMP_pressure;BME280_temperature;BME280_humidity;BME280_pressure;Samples;Min_cycle;Max_cycle;Signal;HPM_P1;HPM_P2
2023/02/24 00:01:59;;;;;;;;;12.00;9.50;;;;;7.09;80.69;97846.63;4907467;28;102043;-68
2023/02/24 00:04:30;;;;;;;;;11.25;9.00;;;;;7.08;80.50;97834.19;4905316;28;109194;-68
2023/02/24 00:06:58;;;;;;;;;8.25;7.50;;;;;7.13;80.97;97830.91;4893666;28;102443;-68
2023/02/24 00:09:28;;;;;;;;;8.75;6.50;;;;;7.13;80.69;97839.00;4895275;28;102409;-69
2023/02/24 00:12:02;;;;;;;;;9.00;7.50;;;;;7.14;80.61;97833.44;4895604;28;102146;-68
2023/02/24 00:14:33;;;;;;;;;10.25;7.75;;;;;7.14;80.73;97828.03;4896866;28;108719;-69
2023/02/24 00:17:01;;;;;;;;;8.00;6.50;;;;;7.11;80.60;97817.66;4894100;28;102405;-68
2023/02/24 00:19:32;;;;;;;;;9.50;7.75;;;;;7.14;80.80;97819.97;4909672;28;102017;-68
2023/02/24 00:22:02;;;;;;;;;11.50;11.00;;;;;7.12;80.08;97813.13;4909103;28;102188;-69
2023/02/24 00:24:29;;;;;;;;;7.25;6.50;;;;;7.11;80.76;97809.59;4901176;28;108694;-70
2023/02/24 00:26:58;;;;;;;;;7.75;4.50;;;;;7.10;80.93;97815.19;4893067;28;102348;-69
2023/02/24 00:29:28;;;;;;;;;7.00;6.00;;;;;7.09;80.37;97817.06;4892253;28;102412;-69
2023/02/24 00:32:05;;;;;;;;;7.25;6.75;;;;;7.07;80.77;97808.34;4896580;28;102249;-70
2023/02/24 00:34:35;;;;;;;;;7.00;6.50;;;;;7.06;81.00;97798.66;4891713;28;108789;-70
2023/02/24 00:37:05;;;;;;;;;8.50;6.00;;;;;6.84;81.22;97767.50;4893750;28;102439;-69
2023/02/24 00:39:33;;;;;;;;;8.00;6.25;;;;;7.04;81.02;97795.31;4894139;28;102043;-69
2023/02/24 00:42:03;;;;;;;;;5.00;4.50;;;;;7.05;81.07;97791.59;4890642;28;102259;-69
2023/02/24 00:44:40;;;;;;;;;7.00;5.25;;;;;7.07;81.02;97796.75;4892016;28;108879;-69
2023/02/24 00:47:09;;;;;;;;;8.75;7.00;;;;;7.07;80.91;97802.97;4889375;28;102467;-69
2023/02/24 00:49:41;;;;;;;;;7.75;6.00;;;;;7.08;81.60;97793.06;4890132;28;102572;-69
2023/02/24 00:52:14;;;;;;;;;7.25;4.75;;;;;7.10;81.24;97791.84;4893394;28;102570;-69
2023/02/24 00:54:42;;;;;;;;;4.50;3.25;;;;;7.11;81.07;97792.66;4891446;28;103966;-69
2023/02/24 00:57:10;;;;;;;;;16.75;13.25;;;;;7.11;80.87;97784.59;4890703;28;102150;-69
2023/02/24 00:59:38;;;;;;;;;11.25;7.75;;;;;7.11;80.87;97785.41;4890536;28;102303;-70
2023/02/24 01:02:06;;;;;;;;;7.00;6.00;;;;;7.09;81.20;97782.09;4892914;28;102084;-70
2023/02/24 01:04:33;;;;;;;;;7.75;7.50;;;;;7.10;80.69;97775.72;4896568;28;104020;-69
2023/02/24 01:07:01;;;;;;;;;7.00;6.25;;;;;7.10;81.14;97773.03;4891217;28;102748;-68
2023/02/24 01:09:30;;;;;;;;;6.00;6.00;;;;;7.09;80.60;97768.66;4891407;28;103503;-67
2023/02/24 01:12:37;;;;;;;;;7.25;6.50;;;;;7.03;81.44;97765.94;4893436;28;104336;-68
2023/02/24 01:14:50;;;;;;;;;28.50;22.50;;;;;6.96;81.41;97762.41;4888768;28;108589;-68
2023/02/24 01:17:19;;;;;;;;;22.75;18.25;;;;;6.96;81.76;97759.72;4875596;28;102440;-68
2023/02/24 01:19:48;;;;;;;;;21.50;14.75;;;;;7.01;81.35;97752.72;4890200;28;102502;-69
2023/02/24 01:22:17;;;;;;;;;16.00;12.25;;;;;7.02;81.64;97753.56;4892982;28;102350;-69
2023/02/24 01:24:45;;;;;;;;;11.25;9.50;;;;;7.02;81.21;97754.38;4890614;28;104006;-68
2023/02/24 01:27:14;;;;;;;;;9.00;7.00;;;;;7.05;81.88;97756.66;4889917;28;103696;-68
2023/02/24 01:29:42;;;;;;;;;7.00;5.00;;;;;7.05;81.51;97748.59;4890791;28;102237;-68
2023/02/24 01:32:17;;;;;;;;;9.25;7.25;;;;;7.06;81.23;97747.56;4889113;28;103543;-68
2023/02/24 01:34:46;;;;;;;;;7.75;5.75;;;;;7.07;81.68;97745.69;4889324;28;103983;-68
2023/02/24 01:37:18;;;;;;;;;6.50;6.00;;;;;7.07;81.20;97740.31;4888829;28;102003;-68
2023/02/24 01:39:46;;;;;;;;;16.25;15.25;;;;;7.02;81.65;97738.25;4888261;28;102421;-69
2023/02/24 01:42:18;;;;;;;;;14.50;13.25;;;;;7.05;81.25;97728.94;4893716;28;102123;-69
2023/02/24 01:44:45;;;;;;;;;9.50;9.00;;;;;7.06;81.54;97733.31;4909630;28;103683;-69
2023/02/24 01:47:17;;;;;;;;;13.50;12.00;;;;;6.90;81.60;97707.59;4913212;28;102186;-70
2023/02/24 01:49:46;;;;;;;;;10.00;9.25;;;;;7.06;81.68;97739.50;4914302;28;102527;-69
2023/02/24 01:52:16;;;;;;;;;9.50;7.25;;;;;7.07;81.38;97725.03;4915771;28;103771;-69
2023/02/24 01:54:50;;;;;;;;;8.50;8.00;;;;;7.07;81.20;97733.09;4917523;28;104283;-69
2023/02/24 01:57:22;;;;;;;;;7.25;5.25;;;;;7.07;80.99;97716.94;4918962;28;102330;-70
2023/02/24 01:59:52;;;;;;;;;7.00;6.25;;;;;7.07;81.41;97716.94;4896027;28;106580;-70
2023/02/24 02:02:22;;;;;;;;;8.75;7.00;;;;;7.08;81.22;97718.63;4918442;28;101942;-69
2023/02/24 02:04:56;;;;;;;;;13.50;10.00;;;;;7.08;81.05;97710.56;4903421;28;103233;-69
2023/02/24 02:07:25;;;;;;;;;12.00;8.75;;;;;6.97;81.24;97696.88;4908298;28;102505;-69
2023/02/24 02:10:06;;;;;;;;;9.50;6.75;;;;;7.10;81.30;97705.81;4917939;28;102391;-69
2023/02/24 02:12:50;;;;;;;;;8.25;7.00;;;;;7.08;81.00;97707.88;4911053;28;102353;-69
2023/02/24 02:15:32;;;;;;;;;10.25;9.00;;;;;7.08;81.54;97698.97;4919202;28;103044;-69
2023/02/24 02:18:43;;;;;;;;;8.00;7.50;;;;;7.08;81.17;97702.50;4922327;28;103687;-69
2023/02/24 02:21:57;;;;;;;;;9.00;6.75;;;;;7.11;81.05;97702.09;4914590;28;101898;-68
2023/02/24 02:24:42;;;;;;;;;9.00;7.25;;;;;7.11;81.19;97704.78;4923672;28;102440;-69
2023/02/24 02:27:44;;;;;;;;;8.25;7.25;;;;;7.11;81.37;97694.03;4905909;28;107697;-68
2023/02/24 02:30:50;;;;;;;;;9.00;8.25;;;;;7.13;80.65;97700.03;4907611;28;102517;-68
2023/02/24 02:33:48;;;;;;;;;13.25;10.25;;;;;7.14;80.55;97692.81;4913629;28;102279;-68
2023/02/24 02:36:26;;;;;;;;;11.50;9.25;;;;;7.15;80.59;97686.41;4917091;28;102531;-68
2023/02/24 02:38:53;;;;;;;;;9.25;8.00;;;;;7.14;80.64;97692.81;4913993;28;104138;-68
2023/02/24 02:41:54;;;;;;;;;11.25;7.75;;;;;7.13;81.20;97675.84;4916105;28;103170;-69
2023/02/24 02:44:34;;;;;;;;;6.50;4.25;;;;;7.14;80.81;97671.31;4891264;28;102207;-69
2023/02/24 02:47:07;;;;;;;;;8.75;7.25;;;;;7.15;80.34;97681.84;4891677;28;103219;-70
2023/02/24 02:49:39;;;;;;;;;8.75;7.75;;;;;7.15;81.08;97672.97;4890531;28;105361;-68
2023/02/24 02:52:14;;;;;;;;;7.25;4.00;;;;;7.15;81.06;97670.28;4894370;28;102193;-68
2023/02/24 02:54:48;;;;;;;;;7.00;6.00;;;;;7.15;80.48;97673.78;4892112;28;102343;-69
2023/02/24 02:57:26;;;;;;;;;7.25;6.25;;;;;7.16;81.01;97670.06;4892401;28;102316;-69
2023/02/24 03:00:12;;;;;;;;;7.00;6.75;;;;;7.15;81.02;97663.03;4892385;28;103990;-69
2023/02/24 03:02:44;;;;;;;;;9.50;8.50;;;;;7.15;80.56;97662.22;4892529;28;102165;-70
2023/02/24 03:05:16;;;;;;;;;7.75;6.75;;;;;7.16;80.67;97663.84;4891260;28;102464;-69
2023/02/24 03:07:50;;;;;;;;;12.75;9.00;;;;;7.16;80.93;97663.84;4895899;28;102544;-70
2023/02/24 03:10:26;;;;;;;;;11.00;7.50;;;;;7.18;81.26;97645.66;4891864;28;104260;-69
2023/02/24 03:12:57;;;;;;;;;10.25;9.00;;;;;7.16;80.75;97656.59;4890841;28;102077;-69
2023/02/24 03:15:29;;;;;;;;;9.00;9.00;;;;;7.17;81.24;97652.06;4891223;28;103121;-68
2023/02/24 03:18:09;;;;;;;;;13.50;10.50;;;;;7.21;81.05;97655.16;4894548;28;102491;-68
2023/02/24 03:20:45;;;;;;;;;17.50;13.00;;;;;7.22;81.07;97646.91;4894293;28;108618;-68
2023/02/24 03:23:24;;;;;;;;;14.75;13.00;;;;;7.23;81.11;97645.88;4890561;28;102449;-69
2023/02/24 03:26:00;;;;;;;;;10.00;8.25;;;;;7.25;81.25;97638.44;4891282;28;102239;-68
2023/02/24 03:28:36;;;;;;;;;11.00;9.00;;;;;7.25;81.86;97641.13;4891497;28;102146;-69
2023/02/24 03:31:10;;;;;;;;;14.75;14.00;;;;;7.24;82.08;97649.41;4893223;28;104280;-69
2023/02/24 03:33:43;;;;;;;;;17.00;14.00;;;;;7.18;82.91;97638.44;4893174;28;102153;-69
2023/02/24 03:36:13;;;;;;;;;19.75;15.50;;;;;7.18;83.52;97640.28;4890476;28;102205;-70
2023/02/24 03:38:42;;;;;;;;;12.25;8.25;;;;;7.19;83.68;97639.25;4892827;28;102048;-69
2023/02/24 03:41:10;;;;;;;;;8.75;8.25;;;;;7.05;84.24;97618.75;4891805;28;103977;-71
2023/02/24 03:43:44;;;;;;;;;6.50;6.25;;;;;7.03;84.29;97610.88;4913577;28;102296;-69
2023/02/24 03:46:14;;;;;;;;;11.00;9.00;;;;;7.09;84.85;97631.59;4925457;28;102415;-70
2023/02/24 03:48:50;;;;;;;;;13.50;10.75;;;;;6.86;84.29;97598.84;4916628;28;102175;-70
2023/02/24 03:51:19;;;;;;;;;11.75;9.00;;;;;7.03;85.25;97626.19;4921974;28;103932;-69
2023/02/24 03:54:31;;;;;;;;;9.00;9.00;;;;;7.02;84.88;97628.06;4914509;28;102208;-69
2023/02/24 03:57:13;;;;;;;;;10.25;8.00;;;;;7.01;85.33;97618.34;4893986;28;102084;-69
2023/02/24 04:00:24;;;;;;;;;14.00;11.75;;;;;6.97;84.90;97622.47;4920013;28;102142;-70
2023/02/24 04:02:50;;;;;;;;;14.50;12.00;;;;;6.96;86.26;97619.97;4911287;28;108607;-70
2023/02/24 04:05:23;;;;;;;;;14.00;12.75;;;;;6.96;86.79;97610.06;4922849;28;102343;-69
2023/02/24 04:07:59;;;;;;;;;12.25;10.50;;;;;6.94;87.41;97612.09;4921481;28;102137;-69
2023/02/24 04:10:52;;;;;;;;;10.75;7.75;;;;;6.90;88.41;97610.84;4917213;28;102427;-69
2023/02/24 04:13:49;;;;;;;;;10.00;9.00;;;;;6.85;89.07;97599.88;4915455;28;108654;-71
2023/02/24 04:16:27;;;;;;;;;6.25;6.00;;;;;6.81;89.43;97601.31;4912120;28;102401;-71
2023/02/24 04:19:02;;;;;;;;;11.50;8.25;;;;;6.78;90.21;97596.34;4926628;28;102369;-71
2023/02/24 04:21:33;;;;;;;;;6.25;5.00;;;;;6.74;91.22;97605.84;4923496;28;102291;-71
2023/02/24 04:24:10;;;;;;;;;10.25;9.00;;;;;6.68;91.63;97588.66;4922065;28;104043;-71
2023/02/24 04:26:42;;;;;;;;;11.50;8.25;;;;;6.63;92.32;97587.59;4920905;28;101919;-71
2023/02/24 04:29:16;;;;;;;;;12.75;12.50;;;;;6.62;92.52;97589.47;4931484;28;102635;-71
2023/02/24 04:31:51;;;;;;;;;11.00;8.75;;;;;6.60;92.99;97582.66;4916757;28;102499;-71
2023/02/24 04:34:19;;;;;;;;;11.75;8.25;;;;;6.58;93.31;97577.47;4917191;28;103971;-71
2023/02/24 04:36:49;;;;;;;;;6.75;6.00;;;;;6.58;93.71;97584.69;4913978;28;102033;-71
2023/02/24 04:39:18;;;;;;;;;11.75;7.50;;;;;6.55;93.98;97574.34;4922583;28;102341;-71
2023/02/24 04:41:48;;;;;;;;;6.25;6.25;;;;;6.32;94.53;97528.22;4920765;28;101918;-70
2023/02/24 04:44:17;;;;;;;;;12.00;6.50;;;;;6.54;94.59;97561.94;4912754;28;104025;-71
2023/02/24 04:46:45;;;;;;;;;9.00;6.00;;;;;6.51;94.96;97557.81;4913023;28;102430;-70
2023/02/24 04:49:12;;;;;;;;;8.25;7.00;;;;;6.43;95.08;97549.94;4914559;28;102068;-70
2023/02/24 04:51:42;;;;;;;;;5.25;3.25;;;;;6.46;95.35;97554.91;4913592;28;103754;-74
2023/02/24 04:54:16;;;;;;;;;9.25;7.25;;;;;6.49;96.01;97553.66;4913195;28;104016;-72
2023/02/24 04:56:46;;;;;;;;;10.75;10.00;;;;;6.37;96.25;97537.31;4912389;28;102640;-71
2023/02/24 04:59:14;;;;;;;;;12.00;12.00;;;;;6.41;96.86;97545.78;4913878;28;102320;-71
2023/02/24 05:01:42;;;;;;;;;14.75;12.25;;;;;6.36;97.15;97541.03;4913758;28;102615;-72
2023/02/24 05:04:12;;;;;;;;;12.00;10.50;;;;;6.25;97.35;97520.97;4914920;28;104286;-70
2023/02/24 05:06:42;;;;;;;;;16.00;11.75;;;;;6.32;97.54;97520.16;4911840;28;102192;-71
2023/02/24 05:09:16;;;;;;;;;12.50;10.50;;;;;6.28;97.97;97525.94;4905379;28;102465;-71
2023/02/24 05:11:48;;;;;;;;;14.50;12.50;;;;;6.26;97.87;97516.41;4908003;28;104705;-72
2023/02/24 05:14:19;;;;;;;;;11.00;9.00;;;;;6.25;98.25;97510.25;4908790;28;104258;-71
2023/02/24 05:16:47;;;;;;;;;6.25;6.00;;;;;6.23;98.40;97506.09;4910835;28;102328;-71
2023/02/24 05:22:05;;;;;;;;;11.75;11.00;;;;;6.19;98.38;97502.16;4913324;28;102606;-71
2023/02/24 05:24:33;;;;;;;;;14.00;12.00;;;;;6.15;98.36;97499.03;4909266;28;103832;-71
2023/02/24 05:27:02;;;;;;;;;12.50;11.75;;;;;6.16;98.59;97500.69;4909117;28;103089;-71
2023/02/24 05:29:32;;;;;;;;;11.50;9.50;;;;;6.15;98.71;97493.66;4908110;28;102226;-70
2023/02/24 05:32:00;;;;;;;;;15.25;13.25;;;;;6.12;98.98;97499.41;4910162;28;102222;-71
2023/02/24 05:34:30;;;;;;;;;12.50;11.25;;;;;6.15;98.67;97499.03;4909883;28;104003;-70
2023/02/24 05:36:59;;;;;;;;;15.00;12.00;;;;;6.14;99.21;97492.00;4910740;28;103011;-70
2023/02/24 05:39:27;;;;;;;;;18.50;13.75;;;;;6.14;98.91;97501.91;4908582;28;102143;-70
2023/02/24 05:41:55;;;;;;;;;17.75;14.25;;;;;6.12;99.33;97502.09;4911440;28;102480;-70
2023/02/24 05:44:24;;;;;;;;;14.00;11.50;;;;;6.07;99.18;97483.13;4908715;28;104354;-70
2023/02/24 05:46:58;;;;;;;;;14.00;10.75;;;;;6.14;98.95;97493.84;4913245;28;103121;-71
2023/02/24 05:49:32;;;;;;;;;12.00;9.00;;;;;6.16;98.98;97491.81;4913627;28;102369;-71
2023/02/24 05:52:06;;;;;;;;;9.75;7.25;;;;;6.17;98.84;97494.28;4911620;28;102164;-70
2023/02/24 05:54:38;;;;;;;;;8.75;8.00;;;;;6.16;98.56;97489.97;4909183;28;104406;-71
2023/02/24 05:57:11;;;;;;;;;10.25;9.00;;;;;6.19;98.90;97499.47;4913495;28;102202;-70
2023/02/24 05:59:40;;;;;;;;;13.50;11.50;;;;;6.17;98.82;97496.97;4912000;28;102081;-70
2023/02/24 06:02:11;;;;;;;;;10.75;8.00;;;;;6.17;99.04;97488.09;4915698;28;102317;-71
2023/02/24 06:04:52;;;;;;;;;8.00;8.00;;;;;6.20;99.15;97501.13;4911615;28;108840;-71
2023/02/24 06:07:23;;;;;;;;;7.25;7.25;;;;;6.19;98.52;97484.19;4911759;28;102307;-71
2023/02/24 06:09:56;;;;;;;;;7.75;6.75;;;;;6.21;98.54;97495.53;4912412;28;102137;-70
2023/02/24 06:12:29;;;;;;;;;7.75;7.00;;;;;6.21;98.86;97482.13;4911954;28;101967;-71
2023/02/24 06:14:59;;;;;;;;;12.75;9.50;;;;;6.21;98.56;97487.47;4910584;28;104036;-70
2023/02/24 06:17:27;;;;;;;;;7.25;5.00;;;;;6.22;99.03;97477.56;4911201;28;102491;-70
2023/02/24 06:19:54;;;;;;;;;9.75;8.00;;;;;6.23;98.77;97468.50;4910756;28;101985;-70
2023/02/24 06:22:23;;;;;;;;;11.00;9.00;;;;;6.22;98.65;97469.53;4913915;28;103157;-70
2023/02/24 06:24:52;;;;;;;;;12.00;10.00;;;;;6.22;98.77;97478.41;4913245;28;104028;-71
2023/02/24 06:27:20;;;;;;;;;17.00;13.00;;;;;6.23;98.83;97469.34;4912677;28;102262;-71
2023/02/24 06:29:49;;;;;;;;;16.50;13.25;;;;;6.23;98.63;97469.34;4907053;28;102563;-71
2023/02/24 06:32:22;;;;;;;;;21.50;18.75;;;;;6.23;98.49;97469.34;4901933;28;102212;-71
2023/02/24 06:34:50;;;;;;;;;22.50;19.25;;;;;6.04;98.45;97437.03;4909524;28;104161;-71
2023/02/24 06:37:17;;;;;;;;;25.25;19.75;;;;;6.26;98.85;97474.28;4910016;28;102329;-71
2023/02/24 06:39:44;;;;;;;;;27.50;24.00;;;;;6.25;98.53;97464.59;4909286;28;102396;-71
2023/02/24 06:42:12;;;;;;;;;22.50;18.00;;;;;6.28;98.32;97472.25;4927398;28;102011;-71
2023/02/24 06:44:40;;;;;;;;;42.75;35.25;;;;;6.29;98.08;97478.44;4913698;28;104136;-71
2023/02/24 06:47:12;;;;;;;;;31.00;26.25;;;;;6.29;98.11;97475.75;4912263;28;102165;-70
2023/02/24 06:49:41;;;;;;;;;27.00;21.75;;;;;6.21;97.92;97465.22;4911769;28;101988;-70
2023/02/24 06:52:10;;;;;;;;;23.25;16.25;;;;;6.31;98.11;97472.84;4910404;28;102498;-71
2023/02/24 06:54:37;;;;;;;;;29.75;20.25;;;;;6.30;98.24;97471.22;4901348;28;108692;-70
2023/02/24 06:57:04;;;;;;;;;19.75;16.50;;;;;6.33;98.13;97468.13;4896733;28;102473;-71
2023/02/24 06:59:31;;;;;;;;;17.50;16.00;;;;;6.37;98.24;97466.69;4909548;28;102466;-71
2023/02/24 07:02:00;;;;;;;;;20.50;17.00;;;;;6.39;98.12;97468.16;4920951;28;102367;-70
2023/02/24 07:04:28;;;;;;;;;27.75;23.25;;;;;6.40;97.83;97459.06;4908040;28;104117;-70
2023/02/24 07:07:01;;;;;;;;;33.25;28.75;;;;;6.40;98.22;97466.28;4909280;28;102349;-70
2023/02/24 07:09:30;;;;;;;;;36.50;29.50;;;;;6.31;98.37;97456.75;4907056;28;102541;-69
2023/02/24 07:11:58;;;;;;;;;23.50;19.50;;;;;6.46;98.51;97462.78;4910112;28;102100;-71
2023/02/24 07:14:29;;;;;;;;;37.75;28.50;;;;;6.50;98.26;97454.13;4909074;28;104714;-70
2023/02/24 07:16:58;;;;;;;;;32.50;27.25;;;;;6.46;98.63;97458.25;4913932;28;102478;-69
2023/02/24 07:19:27;;;;;;;;;29.75;21.50;;;;;6.51;98.89;97454.97;4913532;28;109537;-70
2023/02/24 07:22:00;;;;;;;;;38.25;28.00;;;;;6.52;99.22;97451.25;4913946;28;102100;-71
2023/02/24 07:24:34;;;;;;;;;45.25;36.00;;;;;6.51;98.74;97455.78;4913553;28;103970;-71
2023/02/24 07:27:10;;;;;;;;;33.75;28.00;;;;;6.55;98.98;97448.16;4909160;28;103047;-71
2023/02/24 07:29:37;;;;;;;;;23.75;21.50;;;;;6.55;99.05;97450.84;4915097;28;102445;-71
2023/02/24 07:32:07;;;;;;;;;22.00;19.75;;;;;6.57;98.76;97448.78;4914277;28;102248;-71
2023/02/24 07:34:38;;;;;;;;;21.75;17.00;;;;;6.59;98.99;97449.38;4907520;28;104091;-71
2023/02/24 07:37:07;;;;;;;;;23.00;18.25;;;;;6.53;98.90;97434.91;4915326;28;101903;-71
2023/02/24 07:39:38;;;;;;;;;21.50;19.50;;;;;6.56;98.93;97444.44;4911133;28;101919;-71
2023/02/24 07:42:08;;;;;;;;;39.50;31.50;;;;;6.43;100.00;97441.72;4915159;28;102473;-71
2023/02/24 07:44:35;;;;;;;;;31.75;25.00;;;;;6.51;100.00;97438.84;4910877;28;104010;-72
2023/02/24 07:47:06;;;;;;;;;33.25;26.50;;;;;6.54;99.76;97430.38;4914380;28;102341;-72
2023/02/24 07:49:35;;;;;;;;;32.00;23.00;;;;;6.34;99.70;97410.72;4915202;28;102472;-71
2023/02/24 07:52:02;;;;;;;;;22.50;18.50;;;;;6.56;99.41;97433.69;4914664;28;102499;-71
2023/02/24 07:54:28;;;;;;;;;23.50;20.50;;;;;6.59;99.26;97430.59;4909391;28;103992;-71
2023/02/24 07:56:57;;;;;;;;;27.50;20.75;;;;;6.59;99.21;97423.38;4916424;28;102095;-71
2023/02/24 07:59:33;;;;;;;;;28.25;23.25;;;;;6.54;99.23;97414.25;4911438;28;102105;-71
2023/02/24 08:02:03;;;;;;;;;23.75;20.00;;;;;6.66;99.06;97420.69;4915126;28;102359;-71
2023/02/24 08:04:31;;;;;;;;;25.25;19.00;;;;;6.68;98.82;97424.81;4911942;28;103995;-71
2023/02/24 08:07:01;;;;;;;;;32.25;25.25;;;;;6.64;99.12;97412.84;4910056;28;102281;-72
2023/02/24 08:12:17;;;;;;;;;32.50;25.50;;;;;6.68;98.24;97414.06;4910621;28;102695;-71
2023/02/24 08:14:49;;;;;;;;;21.25;18.00;;;;;6.74;98.84;97412.44;4913085;28;105039;-71
2023/02/24 08:17:25;;;;;;;;;40.25;36.25;;;;;6.64;98.22;97406.63;4912041;28;102747;-71
2023/02/24 08:20:20;;;;;;;;;39.50;32.00;;;;;6.66;98.45;97396.53;4911390;28;102011;-71
2023/02/24 08:22:45;;;;;;;;;43.50;36.00;;;;;6.61;98.52;97404.38;4908120;28;102435;-71
2023/02/24 08:25:17;;;;;;;;;51.75;40.00;;;;;6.58;98.86;97407.44;4902052;28;103991;-71
2023/02/24 08:27:54;;;;;;;;;47.00;36.75;;;;;6.54;98.94;97379.34;4904655;28;102523;-71
2023/02/24 08:30:45;;;;;;;;;39.75;30.50;;;;;6.67;98.72;97406.22;4901340;28;102093;-72
2023/02/24 08:33:18;;;;;;;;;31.75;30.25;;;;;6.75;98.71;97410.56;4899391;28;102621;-72
2023/02/24 08:35:59;;;;;;;;;36.50;29.50;;;;;6.70;98.33;97405.81;4900407;28;104033;-71
2023/02/24 08:38:40;;;;;;;;;44.00;35.00;;;;;6.73;98.70;97402.72;4899067;28;102377;-71
2023/02/24 08:41:16;;;;;;;;;45.50;34.50;;;;;6.78;98.42;97397.56;4910794;28;102269;-71
2023/02/24 08:43:45;;;;;;;;;49.75;36.75;;;;;6.79;98.33;97393.84;4905527;28;102097;-70
2023/02/24 08:46:17;;;;;;;;;45.75;38.25;;;;;6.81;98.43;97391.75;4920348;28;103955;-71
2023/02/24 08:48:48;;;;;;;;;51.00;39.75;;;;;6.85;98.47;97387.63;4908963;28;102058;-71
2023/02/24 08:51:27;;;;;;;;;55.25;42.00;;;;;6.86;98.88;97391.97;4906957;28;102181;-71
2023/02/24 08:53:59;;;;;;;;;49.00;38.50;;;;;6.92;98.03;97385.78;4914683;28;102346;-71
2023/02/24 08:56:33;;;;;;;;;47.25;35.75;;;;;6.96;97.48;97378.94;4910730;28;104527;-71
2023/02/24 08:59:05;;;;;;;;;54.75;43.00;;;;;6.88;98.11;97381.84;4910703;28;101970;-70
2023/02/24 09:01:36;;;;;;;;;50.25;39.00;;;;;6.85;97.86;97376.88;4910478;28;101856;-71
2023/02/24 09:04:08;;;;;;;;;43.50;34.50;;;;;6.99;97.23;97381.22;4910514;28;102325;-71
2023/02/24 09:06:47;;;;;;;;;39.00;30.75;;;;;7.00;97.08;97377.50;4912303;28;104050;-71
2023/02/24 09:09:17;;;;;;;;;57.00;40.50;;;;;6.90;97.89;97374.41;4911440;28;102439;-71
2023/02/24 09:11:48;;;;;;;;;52.00;39.50;;;;;6.98;98.07;97376.06;4911219;28;102304;-71
2023/02/24 09:14:19;;;;;;;;;37.25;30.00;;;;;7.11;98.18;97366.09;4912132;28;102542;-71
2023/02/24 09:17:02;;;;;;;;;59.75;43.00;;;;;7.07;97.94;97362.19;4913429;28;103723;-71
2023/02/24 09:20:14;;;;;;;;;47.25;34.50;;;;;7.22;97.83;97367.31;4910003;28;102292;-72
2023/02/24 09:22:30;;;;;;;;;33.75;25.75;;;;;7.34;98.07;97365.63;4910271;28;103719;-71
2023/02/24 09:25:16;;;;;;;;;40.50;36.25;;;;;7.29;97.69;97362.78;4903136;28;102085;-71
2023/02/24 09:28:08;;;;;;;;;44.50;34.50;;;;;7.32;98.24;97369.59;4897197;28;108834;-71
2023/02/24 09:30:49;;;;;;;;;28.25;24.00;;;;;7.37;97.71;97365.22;4905208;28;102445;-71
2023/02/24 09:33:20;;;;;;;;;27.25;20.75;;;;;7.39;98.25;97356.94;4899287;28;103229;-71
2023/02/24 09:35:50;;;;;;;;;29.00;26.50;;;;;7.34;97.06;97357.56;4913100;28;102434;-71
2023/02/24 09:38:35;;;;;;;;;28.75;24.25;;;;;7.40;98.09;97354.03;4911395;28;104000;-69
2023/02/24 09:41:28;;;;;;;;;28.75;23.75;;;;;7.38;97.93;97349.94;4911026;28;102237;-71
2023/02/24 09:44:17;;;;;;;;;37.75;28.00;;;;;7.38;98.00;97349.94;4885728;28;102190;-70
2023/02/24 09:47:29;;;;;;;;;27.50;20.50;;;;;7.47;98.41;97349.50;4894306;28;102189;-70
2023/02/24 09:50:12;;;;;;;;;28.50;25.50;;;;;7.50;98.20;97345.53;4901332;28;108919;-72
2023/02/24 09:52:40;;;;;;;;;24.75;19.25;;;;;7.45;98.41;97313.06;4890821;28;102041;-71
2023/02/24 09:55:25;;;;;;;;;27.00;24.75;;;;;7.63;97.98;97327.47;4892076;28;103339;-71
2023/02/24 10:01:20;;;;;;;;;54.50;39.75;;;;;7.59;98.38;97325.44;4898532;28;108644;-70
2023/02/24 10:04:21;;;;;;;;;37.75;31.50;;;;;7.79;98.06;97320.78;4889675;28;102442;-70
2023/02/24 10:07:09;;;;;;;;;33.25;29.25;;;;;7.87;97.02;97317.84;4899837;28;104282;-71
2023/02/24 10:10:18;;;;;;;;;20.75;14.75;;;;;8.04;96.80;97308.22;4891007;28;102544;-71
2023/02/24 10:12:53;;;;;;;;;25.75;21.25;;;;;8.16;96.22;97304.81;4900403;28;107526;-71
2023/02/24 10:19:33;;;;;;;;;54.75;38.50;;;;;8.19;96.47;97304.41;4895852;28;102071;-70
2023/02/24 10:22:01;;;;;;;;;43.50;37.00;;;;;8.30;96.23;97299.16;4883050;28;102397;-70
2023/02/24 10:24:36;;;;;;;;;46.75;35.75;;;;;8.34;95.29;97294.16;4889267;28;108856;-70
2023/02/24 10:27:22;;;;;;;;;46.00;38.25;;;;;8.37;93.78;97296.44;4894615;28;102239;-71
2023/02/24 10:30:04;;;;;;;;;50.75;37.25;;;;;8.52;93.92;97281.59;4882359;28;102168;-70
2023/02/24 10:32:59;;;;;;;;;42.00;35.50;;;;;8.65;93.65;97277.94;4892949;28;101882;-70
2023/02/24 10:35:32;;;;;;;;;52.50;42.75;;;;;8.55;92.94;97279.50;4897684;28;108547;-70
2023/02/24 10:38:04;;;;;;;;;38.50;34.25;;;;;8.67;91.81;97267.78;4895991;28;102047;-70
2023/02/24 10:40:55;;;;;;;;;49.25;38.00;;;;;8.50;91.76;97229.00;4896315;28;102178;-71
2023/02/24 10:43:29;;;;;;;;;47.00;39.75;;;;;8.58;91.68;97258.34;4905985;28;102301;-70
2023/02/24 10:46:05;;;;;;;;;58.00;44.50;;;;;8.68;92.34;97250.56;4919048;28;103996;-70
2023/02/24 10:48:39;;;;;;;;;45.75;36.00;;;;;9.01;90.79;97249.38;4906244;28;103315;-70
2023/02/24 10:51:21;;;;;;;;;42.50;37.50;;;;;9.22;90.22;97243.56;4922611;28;102382;-69
2023/02/24 10:54:08;;;;;;;;;53.50;38.75;;;;;8.93;88.31;97221.69;4921871;28;102355;-70
2023/02/24 10:56:54;;;;;;;;;38.75;31.75;;;;;8.99;89.54;97224.53;4915926;28;104219;-70
2023/02/24 11:02:05;;;;;;;;;48.75;39.75;;;;;8.99;90.98;97225.38;4923866;28;102461;-70
2023/02/24 11:05:03;;;;;;;;;46.75;36.25;;;;;8.90;88.78;97219.47;4912342;28;103810;-71
2023/02/24 11:07:44;;;;;;;;;55.50;42.75;;;;;8.94;89.75;97204.47;4915478;28;109956;-69
2023/02/24 11:10:24;;;;;;;;;37.00;32.50;;;;;9.13;88.18;97183.72;4916036;28;102457;-70
2023/02/24 11:18:38;;;;;;;;;56.25;40.25;;;;;9.36;86.51;97178.44;4912873;28;108315;-69
2023/02/24 11:21:09;;;;;;;;;42.50;32.50;;;;;9.65;85.41;97174.09;4927959;28;102490;-68
2023/02/24 11:23:41;;;;;;;;;43.25;35.00;;;;;9.62;85.35;97171.84;4930007;28;102423;-69
2023/02/24 11:26:19;;;;;;;;;31.75;26.50;;;;;9.85;83.19;97168.41;4914975;28;102597;-70
2023/02/24 11:28:49;;;;;;;;;27.00;25.25;;;;;10.06;83.42;97170.53;4912160;28;108592;-69
2023/02/24 11:31:32;;;;;;;;;30.50;25.25;;;;;10.03;82.10;97170.19;4919912;28;102364;-71
2023/02/24 11:34:09;;;;;;;;;28.75;25.00;;;;;10.07;83.13;97168.66;4922553;28;104214;-70
2023/02/24 11:36:56;;;;;;;;;42.00;37.00;;;;;9.49;84.04;97165.81;4921398;28;102353;-70
2023/02/24 11:39:38;;;;;;;;;43.50;36.50;;;;;9.40;82.96;97162.63;4916290;28;108811;-69
2023/02/24 11:42:12;;;;;;;;;38.50;32.00;;;;;9.41;83.73;97162.38;4911555;28;102383;-70
2023/02/24 11:44:45;;;;;;;;;35.50;29.00;;;;;9.48;84.00;97147.97;4912930;28;104031;-71
2023/02/24 11:47:17;;;;;;;;;45.25;35.25;;;;;9.38;84.47;97151.22;4914453;28;102274;-70
2023/02/24 11:49:49;;;;;;;;;33.00;30.00;;;;;9.40;84.08;97154.53;4896115;28;108557;-70
2023/02/24 11:52:26;;;;;;;;;38.50;29.25;;;;;9.45;82.77;97135.78;4910783;28;102358;-70
2023/02/24 11:54:57;;;;;;;;;30.25;26.50;;;;;9.68;82.41;97143.91;4898872;28;102907;-70
2023/02/24 11:57:39;;;;;;;;;40.00;33.50;;;;;9.68;82.65;97138.53;4914371;28;103241;-70
2023/02/24 12:00:18;;;;;;;;;36.25;29.25;;;;;9.72;82.48;97125.41;4913677;28;103997;-70
2023/02/24 12:03:08;;;;;;;;;33.00;24.50;;;;;9.90;80.93;97122.63;4906377;28;102405;-70
2023/02/24 12:05:40;;;;;;;;;24.00;24.00;;;;;9.95;79.30;97108.44;4906696;28;102112;-70
2023/02/24 12:08:17;;;;;;;;;32.50;28.00;;;;;10.06;79.92;97107.59;4910648;28;102087;-70
2023/02/24 12:10:52;;;;;;;;;5.25;0.50;;;;;10.12;78.93;97106.69;4902957;28;108706;-71
2023/02/24 12:13:35;;;;;;;;;36.25;27.50;;;;;10.13;79.46;97109.13;4913518;28;102061;-70
2023/02/24 12:16:13;;;;;;;;;26.25;24.25;;;;;10.20;78.41;97092.84;4912643;28;102120;-70
2023/02/24 12:18:58;;;;;;;;;23.75;20.50;;;;;10.27;79.27;97071.91;4914070;28;102556;-69